Decoded Metar for KBJJ (WOOSTER in OH, USA) (IATA:BJJ) | Meteo·Mobile Aviation Weather
aviador You're here:

KBJJ Decoded Metar

WOOSTER in OH, USA
Report Time2018-11-19 21:56:00
UTC Time2018-11-19 22:11:23
Flight Rules lifr LIFR
WindCalm
Visibility8047 m
Phenomena:Light Rain
Mist
Clouds:Overcast 004 Hf
Ceiling400 ft
Temp02°C (ISA -11)
Dew Point02°C (100% RH)
AAT0.3°C
QNH1015 hPa
Density Alt-148 ft
Elevation1,125 ft
Report Wrong Elevation
Raw Report
KBJJ 192156Z AUTO 00000KT 5SM -RA BR OVC004 02/02 A2997 RMK AO2
RAB24 SLP157 P0001 T00170017=

Extra information for KBJJ:More info

Metar Taf Metar & Taf Last 4 Metars F.Rules Stats Wind Profile Meteogram Temp Stats Airport Information Weather charts Add Link Nearby VenuesMetar ALERT Operation Metar Decoded Social comments

AIRNAV info for KBJJ